Terminal Aerodrome Forecast
Issued by NWS Sioux Falls, SD

Home | Current Version | Previous Version | Text Only | Print | Product List | Glossary On
Versions: 1 2 3 4 5 6 7 8 9 10 11 12 13 14 15
000
FTUS43 KFSD 221723
TAFFSD
TAF
KFSD 221723Z 2218/2318 21010KT P6SM SCT015
     FM222300 20008KT P6SM SCT200
     FM230600 21008KT P6SM BKN120
     FM231600 27006KT P6SM BKN070=

USA.gov is the U.S. government's official web portal to all federal, state and local government web resources and services.